sensor_id;sensor_type;location;lat;lon;timestamp;P1;durP1;ratioP1;P2;durP2;ratioP2
63370;SDS011;49504;48.336;14.472;2023-08-12T00:01:40;3.53;;;0.70;;
63370;SDS011;49504;48.336;14.472;2023-08-12T00:05:03;2.85;;;0.88;;
63370;SDS011;49504;48.336;14.472;2023-08-12T00:08:25;3.50;;;0.90;;
63370;SDS011;49504;48.336;14.472;2023-08-12T00:11:46;2.97;;;1.10;;
63370;SDS011;49504;48.336;14.472;2023-08-12T00:15:07;2.42;;;0.85;;
63370;SDS011;49504;48.336;14.472;2023-08-12T00:18:29;2.63;;;0.93;;
63370;SDS011;49504;48.336;14.472;2023-08-12T00:22:29;2.65;;;0.90;;
63370;SDS011;49504;48.336;14.472;2023-08-12T00:25:50;2.55;;;0.90;;
63370;SDS011;49504;48.336;14.472;2023-08-12T00:29:11;2.55;;;1.00;;
63370;SDS011;49504;48.336;14.472;2023-08-12T00:32:32;2.05;;;0.80;;
63370;SDS011;49504;48.336;14.472;2023-08-12T00:35:53;2.70;;;0.93;;
63370;SDS011;49504;48.336;14.472;2023-08-12T00:39:16;2.50;;;1.00;;
63370;SDS011;49504;48.336;14.472;2023-08-12T00:42:37;2.80;;;1.00;;
63370;SDS011;49504;48.336;14.472;2023-08-12T00:45:58;2.90;;;1.13;;
63370;SDS011;49504;48.336;14.472;2023-08-12T00:49:19;2.67;;;1.00;;
63370;SDS011;49504;48.336;14.472;2023-08-12T00:52:41;3.33;;;1.05;;
63370;SDS011;49504;48.336;14.472;2023-08-12T00:56:04;3.00;;;1.15;;
63370;SDS011;49504;48.336;14.472;2023-08-12T01:02:04;2.88;;;0.88;;
63370;SDS011;49504;48.336;14.472;2023-08-12T01:05:25;2.10;;;0.80;;
63370;SDS011;49504;48.336;14.472;2023-08-12T01:08:47;3.92;;;1.10;;
63370;SDS011;49504;48.336;14.472;2023-08-12T01:12:09;2.33;;;0.90;;
63370;SDS011;49504;48.336;14.472;2023-08-12T01:15:37;2.15;;;0.80;;
63370;SDS011;49504;48.336;14.472;2023-08-12T01:19:01;2.80;;;0.95;;
63370;SDS011;49504;48.336;14.472;2023-08-12T01:22:25;2.55;;;1.00;;
63370;SDS011;49504;48.336;14.472;2023-08-12T01:25:51;2.50;;;1.00;;
63370;SDS011;49504;48.336;14.472;2023-08-12T01:29:12;2.35;;;1.00;;
63370;SDS011;49504;48.336;14.472;2023-08-12T01:32:34;2.15;;;1.05;;
63370;SDS011;49504;48.336;14.472;2023-08-12T01:36:04;2.30;;;1.10;;
63370;SDS011;49504;48.336;14.472;2023-08-12T01:39:33;2.75;;;1.17;;
63370;SDS011;49504;48.336;14.472;2023-08-12T01:42:57;3.00;;;1.38;;
63370;SDS011;49504;48.336;14.472;2023-08-12T01:46:19;3.55;;;1.17;;
63370;SDS011;49504;48.336;14.472;2023-08-12T01:49:41;2.33;;;0.82;;
63370;SDS011;49504;48.336;14.472;2023-08-12T01:53:02;3.42;;;1.02;;
63370;SDS011;49504;48.336;14.472;2023-08-12T01:56:24;2.75;;;0.80;;
63370;SDS011;49504;48.336;14.472;2023-08-12T01:59:46;3.05;;;0.80;;
63370;SDS011;49504;48.336;14.472;2023-08-12T02:03:08;3.75;;;1.10;;
63370;SDS011;49504;48.336;14.472;2023-08-12T02:08:34;3.35;;;1.10;;
63370;SDS011;49504;48.336;14.472;2023-08-12T02:13:36;2.90;;;1.05;;
63370;SDS011;49504;48.336;14.472;2023-08-12T02:16:57;2.90;;;0.85;;
63370;SDS011;49504;48.336;14.472;2023-08-12T02:20:19;2.67;;;0.80;;
63370;SDS011;49504;48.336;14.472;2023-08-12T02:23:40;2.90;;;1.20;;
63370;SDS011;49504;48.336;14.472;2023-08-12T02:27:01;2.80;;;1.00;;
63370;SDS011;49504;48.336;14.472;2023-08-12T02:30:24;2.50;;;1.02;;
63370;SDS011;49504;48.336;14.472;2023-08-12T02:33:45;2.33;;;0.90;;
63370;SDS011;49504;48.336;14.472;2023-08-12T02:37:06;2.90;;;0.98;;
63370;SDS011;49504;48.336;14.472;2023-08-12T02:40:27;2.45;;;0.93;;
63370;SDS011;49504;48.336;14.472;2023-08-12T02:43:48;2.53;;;1.00;;
63370;SDS011;49504;48.336;14.472;2023-08-12T02:47:11;2.55;;;0.90;;
63370;SDS011;49504;48.336;14.472;2023-08-12T02:53:40;2.55;;;1.02;;
63370;SDS011;49504;48.336;14.472;2023-08-12T02:57:01;2.58;;;1.00;;
63370;SDS011;49504;48.336;14.472;2023-08-12T03:00:22;3.00;;;1.00;;
63370;SDS011;49504;48.336;14.472;2023-08-12T03:03:43;1.98;;;0.90;;
63370;SDS011;49504;48.336;14.472;2023-08-12T03:07:05;3.85;;;1.20;;
63370;SDS011;49504;48.336;14.472;2023-08-12T03:10:27;3.10;;;0.88;;
63370;SDS011;49504;48.336;14.472;2023-08-12T03:13:49;2.20;;;0.80;;
63370;SDS011;49504;48.336;14.472;2023-08-12T03:17:12;3.00;;;1.10;;
63370;SDS011;49504;48.336;14.472;2023-08-12T03:20:33;2.92;;;1.10;;
63370;SDS011;49504;48.336;14.472;2023-08-12T03:23:54;2.50;;;0.85;;
63370;SDS011;49504;48.336;14.472;2023-08-12T03:27:17;2.95;;;1.20;;
63370;SDS011;49504;48.336;14.472;2023-08-12T03:30:39;2.42;;;0.80;;
63370;SDS011;49504;48.336;14.472;2023-08-12T03:34:01;2.88;;;1.05;;
63370;SDS011;49504;48.336;14.472;2023-08-12T03:37:24;2.25;;;0.82;;
63370;SDS011;49504;48.336;14.472;2023-08-12T03:40:47;2.45;;;1.00;;
63370;SDS011;49504;48.336;14.472;2023-08-12T03:44:12;3.15;;;1.20;;
63370;SDS011;49504;48.336;14.472;2023-08-12T03:47:33;3.08;;;1.30;;
63370;SDS011;49504;48.336;14.472;2023-08-12T03:54:06;1.98;;;0.80;;
63370;SDS011;49504;48.336;14.472;2023-08-12T03:57:28;2.63;;;0.90;;
63370;SDS011;49504;48.336;14.472;2023-08-12T04:00:49;2.50;;;1.05;;
63370;SDS011;49504;48.336;14.472;2023-08-12T04:04:11;2.28;;;0.90;;
63370;SDS011;49504;48.336;14.472;2023-08-12T04:07:32;3.42;;;0.95;;
63370;SDS011;49504;48.336;14.472;2023-08-12T04:10:54;2.70;;;0.73;;
63370;SDS011;49504;48.336;14.472;2023-08-12T04:14:16;2.67;;;1.00;;
63370;SDS011;49504;48.336;14.472;2023-08-12T04:17:37;2.83;;;0.90;;
63370;SDS011;49504;48.336;14.472;2023-08-12T04:21:00;2.65;;;1.02;;
63370;SDS011;49504;48.336;14.472;2023-08-12T04:24:21;3.30;;;1.20;;
63370;SDS011;49504;48.336;14.472;2023-08-12T04:27:43;3.97;;;1.10;;
63370;SDS011;49504;48.336;14.472;2023-08-12T04:31:06;2.80;;;1.10;;
63370;SDS011;49504;48.336;14.472;2023-08-12T04:34:27;2.55;;;1.00;;
63370;SDS011;49504;48.336;14.472;2023-08-12T04:37:49;3.65;;;1.20;;
63370;SDS011;49504;48.336;14.472;2023-08-12T04:41:11;4.70;;;1.10;;
63370;SDS011;49504;48.336;14.472;2023-08-12T04:44:34;2.75;;;1.00;;
63370;SDS011;49504;48.336;14.472;2023-08-12T04:47:55;5.20;;;1.10;;
63370;SDS011;49504;48.336;14.472;2023-08-12T04:51:18;2.03;;;0.85;;
63370;SDS011;49504;48.336;14.472;2023-08-12T04:54:39;2.20;;;0.90;;
63370;SDS011;49504;48.336;14.472;2023-08-12T04:58:00;3.92;;;1.05;;
63370;SDS011;49504;48.336;14.472;2023-08-12T05:01:25;2.72;;;1.05;;
63370;SDS011;49504;48.336;14.472;2023-08-12T05:04:47;2.33;;;0.80;;
63370;SDS011;49504;48.336;14.472;2023-08-12T05:08:09;2.45;;;0.98;;
63370;SDS011;49504;48.336;14.472;2023-08-12T05:11:30;2.70;;;1.00;;
63370;SDS011;49504;48.336;14.472;2023-08-12T05:14:52;2.42;;;0.90;;
63370;SDS011;49504;48.336;14.472;2023-08-12T05:18:16;4.20;;;1.10;;
63370;SDS011;49504;48.336;14.472;2023-08-12T05:21:41;2.38;;;0.82;;
63370;SDS011;49504;48.336;14.472;2023-08-12T05:25:09;2.83;;;1.13;;
63370;SDS011;49504;48.336;14.472;2023-08-12T05:28:30;2.58;;;0.98;;
63370;SDS011;49504;48.336;14.472;2023-08-12T05:31:52;4.10;;;1.13;;
63370;SDS011;49504;48.336;14.472;2023-08-12T05:35:14;2.10;;;0.85;;
63370;SDS011;49504;48.336;14.472;2023-08-12T05:38:36;2.75;;;0.88;;
63370;SDS011;49504;48.336;14.472;2023-08-12T05:41:57;2.90;;;1.00;;
63370;SDS011;49504;48.336;14.472;2023-08-12T05:45:18;2.35;;;0.82;;
63370;SDS011;49504;48.336;14.472;2023-08-12T05:48:39;2.35;;;1.10;;
63370;SDS011;49504;48.336;14.472;2023-08-12T05:52:02;3.42;;;1.05;;
63370;SDS011;49504;48.336;14.472;2023-08-12T05:55:23;3.90;;;0.90;;
63370;SDS011;49504;48.336;14.472;2023-08-12T05:58:44;2.90;;;1.17;;
63370;SDS011;49504;48.336;14.472;2023-08-12T06:02:06;2.45;;;0.93;;
63370;SDS011;49504;48.336;14.472;2023-08-12T06:05:27;3.60;;;1.20;;
63370;SDS011;49504;48.336;14.472;2023-08-12T06:08:49;5.60;;;1.20;;
63370;SDS011;49504;48.336;14.472;2023-08-12T06:12:10;4.22;;;1.27;;
63370;SDS011;49504;48.336;14.472;2023-08-12T06:15:31;3.10;;;1.27;;
63370;SDS011;49504;48.336;14.472;2023-08-12T06:19:40;4.85;;;1.33;;
63370;SDS011;49504;48.336;14.472;2023-08-12T06:23:01;3.25;;;1.23;;
63370;SDS011;49504;48.336;14.472;2023-08-12T06:26:23;3.22;;;1.60;;
63370;SDS011;49504;48.336;14.472;2023-08-12T06:29:44;3.60;;;1.63;;
63370;SDS011;49504;48.336;14.472;2023-08-12T06:33:05;3.70;;;1.88;;
63370;SDS011;49504;48.336;14.472;2023-08-12T06:36:28;3.47;;;1.60;;
63370;SDS011;49504;48.336;14.472;2023-08-12T06:39:49;5.30;;;1.50;;
63370;SDS011;49504;48.336;14.472;2023-08-12T06:43:10;6.05;;;1.60;;
63370;SDS011;49504;48.336;14.472;2023-08-12T06:48:00;3.95;;;1.27;;
63370;SDS011;49504;48.336;14.472;2023-08-12T06:51:22;3.92;;;1.52;;
63370;SDS011;49504;48.336;14.472;2023-08-12T06:54:43;2.97;;;1.30;;
63370;SDS011;49504;48.336;14.472;2023-08-12T06:58:04;5.18;;;1.85;;
63370;SDS011;49504;48.336;14.472;2023-08-12T07:01:25;5.35;;;1.83;;
63370;SDS011;49504;48.336;14.472;2023-08-12T07:04:48;4.57;;;1.77;;
63370;SDS011;49504;48.336;14.472;2023-08-12T07:08:09;4.38;;;1.58;;
63370;SDS011;49504;48.336;14.472;2023-08-12T07:11:30;6.10;;;1.88;;
63370;SDS011;49504;48.336;14.472;2023-08-12T07:14:52;3.85;;;1.75;;
63370;SDS011;49504;48.336;14.472;2023-08-12T07:18:13;3.25;;;1.55;;
63370;SDS011;49504;48.336;14.472;2023-08-12T07:21:36;3.20;;;1.45;;
63370;SDS011;49504;48.336;14.472;2023-08-12T07:24:57;5.22;;;1.98;;
63370;SDS011;49504;48.336;14.472;2023-08-12T07:28:50;3.60;;;1.65;;
63370;SDS011;49504;48.336;14.472;2023-08-12T07:32:12;3.45;;;1.45;;
63370;SDS011;49504;48.336;14.472;2023-08-12T07:35:33;3.88;;;1.95;;
63370;SDS011;49504;48.336;14.472;2023-08-12T07:38:56;3.95;;;1.70;;
63370;SDS011;49504;48.336;14.472;2023-08-12T07:42:17;4.65;;;2.03;;
63370;SDS011;49504;48.336;14.472;2023-08-12T07:45:42;3.50;;;1.58;;
63370;SDS011;49504;48.336;14.472;2023-08-12T07:49:03;3.67;;;1.63;;
63370;SDS011;49504;48.336;14.472;2023-08-12T07:52:24;3.67;;;1.63;;
63370;SDS011;49504;48.336;14.472;2023-08-12T07:55:45;4.15;;;1.92;;
63370;SDS011;49504;48.336;14.472;2023-08-12T07:59:06;5.10;;;1.80;;
63370;SDS011;49504;48.336;14.472;2023-08-12T08:04:10;4.20;;;1.70;;
63370;SDS011;49504;48.336;14.472;2023-08-12T08:07:31;3.83;;;1.67;;
63370;SDS011;49504;48.336;14.472;2023-08-12T08:10:53;4.03;;;1.65;;
63370;SDS011;49504;48.336;14.472;2023-08-12T08:14:14;4.32;;;1.60;;
63370;SDS011;49504;48.336;14.472;2023-08-12T08:17:35;3.75;;;1.88;;
63370;SDS011;49504;48.336;14.472;2023-08-12T08:20:58;4.95;;;1.52;;
63370;SDS011;49504;48.336;14.472;2023-08-12T08:24:19;3.40;;;1.60;;
63370;SDS011;49504;48.336;14.472;2023-08-12T08:27:40;3.90;;;1.77;;
63370;SDS011;49504;48.336;14.472;2023-08-12T08:31:01;4.03;;;1.67;;
63370;SDS011;49504;48.336;14.472;2023-08-12T08:34:23;3.90;;;1.98;;
63370;SDS011;49504;48.336;14.472;2023-08-12T08:37:45;4.30;;;1.80;;
63370;SDS011;49504;48.336;14.472;2023-08-12T08:41:06;3.50;;;1.50;;
63370;SDS011;49504;48.336;14.472;2023-08-12T08:44:30;5.70;;;2.00;;
63370;SDS011;49504;48.336;14.472;2023-08-12T08:47:52;5.20;;;2.00;;
63370;SDS011;49504;48.336;14.472;2023-08-12T08:51:13;4.30;;;1.80;;
63370;SDS011;49504;48.336;14.472;2023-08-12T08:54:36;7.53;;;2.50;;
63370;SDS011;49504;48.336;14.472;2023-08-12T08:57:59;5.10;;;1.67;;
63370;SDS011;49504;48.336;14.472;2023-08-12T09:01:21;4.25;;;1.70;;
63370;SDS011;49504;48.336;14.472;2023-08-12T09:04:43;4.00;;;1.83;;
63370;SDS011;49504;48.336;14.472;2023-08-12T09:08:06;3.60;;;1.58;;
63370;SDS011;49504;48.336;14.472;2023-08-12T09:11:29;3.55;;;1.45;;
63370;SDS011;49504;48.336;14.472;2023-08-12T09:14:51;9.55;;;2.60;;
63370;SDS011;49504;48.336;14.472;2023-08-12T09:18:12;11.18;;;3.53;;
63370;SDS011;49504;48.336;14.472;2023-08-12T09:21:33;14.38;;;4.15;;
63370;SDS011;49504;48.336;14.472;2023-08-12T09:24:58;23.73;;;7.18;;
63370;SDS011;49504;48.336;14.472;2023-08-12T09:30:12;13.43;;;5.85;;
63370;SDS011;49504;48.336;14.472;2023-08-12T09:33:38;16.52;;;5.10;;
63370;SDS011;49504;48.336;14.472;2023-08-12T09:39:15;23.25;;;6.53;;
63370;SDS011;49504;48.336;14.472;2023-08-12T09:42:42;17.23;;;5.40;;
63370;SDS011;49504;48.336;14.472;2023-08-12T09:46:05;23.40;;;7.65;;
63370;SDS011;49504;48.336;14.472;2023-08-12T09:49:26;24.48;;;6.45;;
63370;SDS011;49504;48.336;14.472;2023-08-12T09:55:09;33.10;;;8.65;;
63370;SDS011;49504;48.336;14.472;2023-08-12T09:58:32;32.47;;;10.10;;
63370;SDS011;49504;48.336;14.472;2023-08-12T10:01:53;28.00;;;8.88;;
63370;SDS011;49504;48.336;14.472;2023-08-12T10:05:16;33.33;;;8.40;;
63370;SDS011;49504;48.336;14.472;2023-08-12T10:08:42;24.23;;;8.52;;
63370;SDS011;49504;48.336;14.472;2023-08-12T10:12:08;22.50;;;6.78;;
63370;SDS011;49504;48.336;14.472;2023-08-12T10:15:30;22.95;;;6.20;;
63370;SDS011;49504;48.336;14.472;2023-08-12T10:18:51;23.77;;;7.07;;
63370;SDS011;49504;48.336;14.472;2023-08-12T10:22:13;18.92;;;6.03;;
63370;SDS011;49504;48.336;14.472;2023-08-12T10:25:34;13.48;;;5.50;;
63370;SDS011;49504;48.336;14.472;2023-08-12T10:28:59;19.30;;;6.10;;
63370;SDS011;49504;48.336;14.472;2023-08-12T10:32:20;13.25;;;5.00;;
63370;SDS011;49504;48.336;14.472;2023-08-12T10:35:45;10.70;;;4.30;;
63370;SDS011;49504;48.336;14.472;2023-08-12T10:39:07;12.35;;;5.43;;
63370;SDS011;49504;48.336;14.472;2023-08-12T10:42:41;14.60;;;4.75;;
63370;SDS011;49504;48.336;14.472;2023-08-12T10:46:05;16.50;;;5.30;;
63370;SDS011;49504;48.336;14.472;2023-08-12T10:50:54;14.68;;;4.65;;
63370;SDS011;49504;48.336;14.472;2023-08-12T10:54:21;13.32;;;4.43;;
63370;SDS011;49504;48.336;14.472;2023-08-12T10:57:44;17.95;;;5.35;;
63370;SDS011;49504;48.336;14.472;2023-08-12T11:01:08;14.05;;;4.95;;
63370;SDS011;49504;48.336;14.472;2023-08-12T11:04:37;12.88;;;4.50;;
63370;SDS011;49504;48.336;14.472;2023-08-12T11:08:00;12.55;;;4.75;;
63370;SDS011;49504;48.336;14.472;2023-08-12T11:11:22;14.00;;;4.15;;
63370;SDS011;49504;48.336;14.472;2023-08-12T11:14:47;15.48;;;4.50;;
63370;SDS011;49504;48.336;14.472;2023-08-12T11:18:09;13.60;;;4.68;;
63370;SDS011;49504;48.336;14.472;2023-08-12T11:21:33;14.07;;;4.15;;
63370;SDS011;49504;48.336;14.472;2023-08-12T11:24:58;14.30;;;4.45;;
63370;SDS011;49504;48.336;14.472;2023-08-12T11:28:20;13.23;;;4.93;;
63370;SDS011;49504;48.336;14.472;2023-08-12T11:31:41;15.50;;;4.82;;
63370;SDS011;49504;48.336;14.472;2023-08-12T11:35:03;12.07;;;4.45;;
63370;SDS011;49504;48.336;14.472;2023-08-12T11:38:25;12.57;;;4.25;;
63370;SDS011;49504;48.336;14.472;2023-08-12T11:41:48;15.38;;;5.07;;
63370;SDS011;49504;48.336;14.472;2023-08-12T11:45:09;11.23;;;4.50;;
63370;SDS011;49504;48.336;14.472;2023-08-12T11:48:31;12.55;;;4.38;;
63370;SDS011;49504;48.336;14.472;2023-08-12T11:51:53;12.55;;;4.00;;
63370;SDS011;49504;48.336;14.472;2023-08-12T11:55:14;8.80;;;3.90;;
63370;SDS011;49504;48.336;14.472;2023-08-12T11:58:37;11.27;;;4.20;;
63370;SDS011;49504;48.336;14.472;2023-08-12T12:02:01;9.43;;;3.50;;
63370;SDS011;49504;48.336;14.472;2023-08-12T12:05:23;11.57;;;4.30;;
63370;SDS011;49504;48.336;14.472;2023-08-12T12:08:47;11.13;;;4.50;;
63370;SDS011;49504;48.336;14.472;2023-08-12T12:13:39;12.77;;;4.85;;
63370;SDS011;49504;48.336;14.472;2023-08-12T12:17:06;11.73;;;3.40;;
63370;SDS011;49504;48.336;14.472;2023-08-12T12:20:28;9.02;;;3.72;;
63370;SDS011;49504;48.336;14.472;2023-08-12T12:23:52;9.23;;;4.18;;
63370;SDS011;49504;48.336;14.472;2023-08-12T12:27:13;10.52;;;4.07;;
63370;SDS011;49504;48.336;14.472;2023-08-12T12:30:36;9.48;;;3.38;;
63370;SDS011;49504;48.336;14.472;2023-08-12T12:33:57;9.52;;;3.78;;
63370;SDS011;49504;48.336;14.472;2023-08-12T12:37:18;11.15;;;3.60;;
63370;SDS011;49504;48.336;14.472;2023-08-12T12:40:39;8.07;;;3.92;;
63370;SDS011;49504;48.336;14.472;2023-08-12T12:44:00;7.80;;;3.40;;
63370;SDS011;49504;48.336;14.472;2023-08-12T12:47:23;10.27;;;4.35;;
63370;SDS011;49504;48.336;14.472;2023-08-12T12:50:44;8.57;;;3.42;;
63370;SDS011;49504;48.336;14.472;2023-08-12T12:54:05;9.20;;;3.22;;
63370;SDS011;49504;48.336;14.472;2023-08-12T12:57:26;11.23;;;3.20;;
63370;SDS011;49504;48.336;14.472;2023-08-12T13:00:47;9.82;;;3.50;;
63370;SDS011;49504;48.336;14.472;2023-08-12T13:04:10;10.73;;;3.83;;
63370;SDS011;49504;48.336;14.472;2023-08-12T13:07:31;7.75;;;3.70;;
63370;SDS011;49504;48.336;14.472;2023-08-12T13:10:52;13.38;;;4.00;;
63370;SDS011;49504;48.336;14.472;2023-08-12T13:14:13;9.55;;;3.97;;
63370;SDS011;49504;48.336;14.472;2023-08-12T13:17:34;5.63;;;2.65;;
63370;SDS011;49504;48.336;14.472;2023-08-12T13:20:56;8.95;;;3.35;;
63370;SDS011;49504;48.336;14.472;2023-08-12T13:24:17;7.18;;;3.13;;
63370;SDS011;49504;48.336;14.472;2023-08-12T13:27:39;11.15;;;4.18;;
63370;SDS011;49504;48.336;14.472;2023-08-12T13:31:00;8.82;;;3.33;;
63370;SDS011;49504;48.336;14.472;2023-08-12T13:34:21;8.15;;;3.20;;
63370;SDS011;49504;48.336;14.472;2023-08-12T13:37:43;7.90;;;3.30;;
63370;SDS011;49504;48.336;14.472;2023-08-12T13:41:04;7.10;;;3.30;;
63370;SDS011;49504;48.336;14.472;2023-08-12T13:44:25;7.47;;;3.60;;
63370;SDS011;49504;48.336;14.472;2023-08-12T13:47:47;10.27;;;3.28;;
63370;SDS011;49504;48.336;14.472;2023-08-12T13:51:08;9.13;;;3.60;;
63370;SDS011;49504;48.336;14.472;2023-08-12T13:54:31;6.30;;;2.67;;
63370;SDS011;49504;48.336;14.472;2023-08-12T13:57:52;8.38;;;3.17;;
63370;SDS011;49504;48.336;14.472;2023-08-12T14:01:13;7.50;;;3.20;;
63370;SDS011;49504;48.336;14.472;2023-08-12T14:04:34;7.65;;;3.20;;
63370;SDS011;49504;48.336;14.472;2023-08-12T14:07:55;6.53;;;3.00;;
63370;SDS011;49504;48.336;14.472;2023-08-12T14:11:18;8.48;;;2.72;;
63370;SDS011;49504;48.336;14.472;2023-08-12T14:14:39;8.57;;;3.20;;
63370;SDS011;49504;48.336;14.472;2023-08-12T14:18:00;8.30;;;2.78;;
63370;SDS011;49504;48.336;14.472;2023-08-12T14:21:21;7.63;;;3.00;;
63370;SDS011;49504;48.336;14.472;2023-08-12T14:24:42;7.00;;;2.60;;
63370;SDS011;49504;48.336;14.472;2023-08-12T14:28:05;6.50;;;3.00;;
63370;SDS011;49504;48.336;14.472;2023-08-12T14:31:26;7.20;;;2.95;;
63370;SDS011;49504;48.336;14.472;2023-08-12T14:34:47;7.03;;;2.60;;
63370;SDS011;49504;48.336;14.472;2023-08-12T14:38:09;6.35;;;2.60;;
63370;SDS011;49504;48.336;14.472;2023-08-12T14:41:30;6.22;;;2.85;;
63370;SDS011;49504;48.336;14.472;2023-08-12T14:44:53;6.25;;;2.60;;
63370;SDS011;49504;48.336;14.472;2023-08-12T14:48:14;7.47;;;3.28;;
63370;SDS011;49504;48.336;14.472;2023-08-12T14:51:35;5.60;;;2.78;;
63370;SDS011;49504;48.336;14.472;2023-08-12T14:54:56;8.20;;;2.65;;
63370;SDS011;49504;48.336;14.472;2023-08-12T14:58:17;8.15;;;3.03;;
63370;SDS011;49504;48.336;14.472;2023-08-12T15:01:41;6.43;;;2.20;;
63370;SDS011;49504;48.336;14.472;2023-08-12T15:05:02;7.25;;;2.47;;
63370;SDS011;49504;48.336;14.472;2023-08-12T15:08:25;6.47;;;2.67;;
63370;SDS011;49504;48.336;14.472;2023-08-12T15:11:46;7.10;;;2.95;;
63370;SDS011;49504;48.336;14.472;2023-08-12T15:15:07;5.85;;;2.33;;
63370;SDS011;49504;48.336;14.472;2023-08-12T15:18:30;5.78;;;2.13;;
63370;SDS011;49504;48.336;14.472;2023-08-12T15:21:51;6.53;;;2.38;;
63370;SDS011;49504;48.336;14.472;2023-08-12T15:25:13;6.13;;;2.53;;
63370;SDS011;49504;48.336;14.472;2023-08-12T15:28:34;7.88;;;3.00;;
63370;SDS011;49504;48.336;14.472;2023-08-12T15:31:55;7.05;;;2.65;;
63370;SDS011;49504;48.336;14.472;2023-08-12T15:35:17;5.60;;;2.35;;
63370;SDS011;49504;48.336;14.472;2023-08-12T15:38:38;5.65;;;2.38;;
63370;SDS011;49504;48.336;14.472;2023-08-12T15:41:59;5.93;;;2.00;;
63370;SDS011;49504;48.336;14.472;2023-08-12T15:45:21;6.80;;;2.22;;
63370;SDS011;49504;48.336;14.472;2023-08-12T15:49:32;6.28;;;2.60;;
63370;SDS011;49504;48.336;14.472;2023-08-12T15:52:53;6.15;;;2.35;;
63370;SDS011;49504;48.336;14.472;2023-08-12T15:56:15;5.13;;;2.00;;
63370;SDS011;49504;48.336;14.472;2023-08-12T15:59:36;4.95;;;1.95;;
63370;SDS011;49504;48.336;14.472;2023-08-12T16:02:57;5.85;;;2.15;;
63370;SDS011;49504;48.336;14.472;2023-08-12T16:06:19;5.72;;;2.33;;
63370;SDS011;49504;48.336;14.472;2023-08-12T16:09:40;5.22;;;2.05;;
63370;SDS011;49504;48.336;14.472;2023-08-12T16:13:01;6.10;;;2.38;;
63370;SDS011;49504;48.336;14.472;2023-08-12T16:16:23;4.20;;;1.58;;
63370;SDS011;49504;48.336;14.472;2023-08-12T16:19:44;5.55;;;2.47;;
63370;SDS011;49504;48.336;14.472;2023-08-12T16:23:07;5.25;;;2.33;;
63370;SDS011;49504;48.336;14.472;2023-08-12T16:26:28;4.78;;;1.80;;
63370;SDS011;49504;48.336;14.472;2023-08-12T16:29:49;4.25;;;1.92;;
63370;SDS011;49504;48.336;14.472;2023-08-12T16:33:11;4.65;;;1.98;;
63370;SDS011;49504;48.336;14.472;2023-08-12T16:36:32;4.22;;;1.92;;
63370;SDS011;49504;48.336;14.472;2023-08-12T16:39:54;4.70;;;2.08;;
63370;SDS011;49504;48.336;14.472;2023-08-12T16:43:15;7.07;;;2.35;;
63370;SDS011;49504;48.336;14.472;2023-08-12T16:46:37;4.30;;;1.90;;
63370;SDS011;49504;48.336;14.472;2023-08-12T16:49:58;3.40;;;1.73;;
63370;SDS011;49504;48.336;14.472;2023-08-12T16:53:19;5.35;;;1.90;;
63370;SDS011;49504;48.336;14.472;2023-08-12T16:56:41;6.95;;;2.20;;
63370;SDS011;49504;48.336;14.472;2023-08-12T17:00:03;4.63;;;1.77;;
63370;SDS011;49504;48.336;14.472;2023-08-12T17:03:26;5.53;;;1.90;;
63370;SDS011;49504;48.336;14.472;2023-08-12T17:06:47;5.65;;;1.98;;
63370;SDS011;49504;48.336;14.472;2023-08-12T17:10:09;3.90;;;1.63;;
63370;SDS011;49504;48.336;14.472;2023-08-12T17:13:31;3.83;;;1.67;;
63370;SDS011;49504;48.336;14.472;2023-08-12T17:16:52;4.63;;;1.90;;
63370;SDS011;49504;48.336;14.472;2023-08-12T17:20:13;5.15;;;2.15;;
63370;SDS011;49504;48.336;14.472;2023-08-12T17:23:35;3.95;;;1.52;;
63370;SDS011;49504;48.336;14.472;2023-08-12T17:26:56;4.65;;;1.67;;
63370;SDS011;49504;48.336;14.472;2023-08-12T17:30:19;4.32;;;1.65;;
63370;SDS011;49504;48.336;14.472;2023-08-12T17:33:40;4.97;;;1.60;;
63370;SDS011;49504;48.336;14.472;2023-08-12T17:37:01;4.22;;;2.05;;
63370;SDS011;49504;48.336;14.472;2023-08-12T17:40:22;4.93;;;1.95;;
63370;SDS011;49504;48.336;14.472;2023-08-12T17:43:44;4.68;;;1.63;;
63370;SDS011;49504;48.336;14.472;2023-08-12T17:47:06;4.50;;;1.67;;
63370;SDS011;49504;48.336;14.472;2023-08-12T17:50:27;4.88;;;1.90;;
63370;SDS011;49504;48.336;14.472;2023-08-12T17:53:49;5.88;;;1.98;;
63370;SDS011;49504;48.336;14.472;2023-08-12T17:57:10;4.78;;;1.58;;
63370;SDS011;49504;48.336;14.472;2023-08-12T18:03:11;5.15;;;1.80;;
63370;SDS011;49504;48.336;14.472;2023-08-12T18:06:32;4.10;;;1.83;;
63370;SDS011;49504;48.336;14.472;2023-08-12T18:09:53;3.47;;;1.48;;
63370;SDS011;49504;48.336;14.472;2023-08-12T18:13:14;4.63;;;1.67;;
63370;SDS011;49504;48.336;14.472;2023-08-12T18:16:36;4.53;;;1.70;;
63370;SDS011;49504;48.336;14.472;2023-08-12T18:19:58;3.50;;;1.60;;
63370;SDS011;49504;48.336;14.472;2023-08-12T18:23:20;5.00;;;1.92;;
63370;SDS011;49504;48.336;14.472;2023-08-12T18:26:41;4.25;;;1.60;;
63370;SDS011;49504;48.336;14.472;2023-08-12T18:30:02;5.65;;;1.67;;
63370;SDS011;49504;48.336;14.472;2023-08-12T18:33:25;4.20;;;1.50;;
63370;SDS011;49504;48.336;14.472;2023-08-12T18:36:47;4.38;;;2.08;;
63370;SDS011;49504;48.336;14.472;2023-08-12T18:40:09;4.13;;;1.73;;
63370;SDS011;49504;48.336;14.472;2023-08-12T18:43:31;4.65;;;1.77;;
63370;SDS011;49504;48.336;14.472;2023-08-12T18:46:52;4.15;;;1.65;;
63370;SDS011;49504;48.336;14.472;2023-08-12T18:50:13;4.78;;;1.75;;
63370;SDS011;49504;48.336;14.472;2023-08-12T18:53:35;4.13;;;1.52;;
63370;SDS011;49504;48.336;14.472;2023-08-12T18:56:56;3.35;;;1.25;;
63370;SDS011;49504;48.336;14.472;2023-08-12T19:00:18;2.97;;;1.20;;
63370;SDS011;49504;48.336;14.472;2023-08-12T19:03:39;4.85;;;1.80;;
63370;SDS011;49504;48.336;14.472;2023-08-12T19:07:00;5.28;;;1.52;;
63370;SDS011;49504;48.336;14.472;2023-08-12T19:10:23;3.35;;;1.60;;
63370;SDS011;49504;48.336;14.472;2023-08-12T19:13:44;6.28;;;1.65;;
63370;SDS011;49504;48.336;14.472;2023-08-12T19:17:05;3.50;;;1.40;;
63370;SDS011;49504;48.336;14.472;2023-08-12T19:20:26;4.28;;;1.65;;
63370;SDS011;49504;48.336;14.472;2023-08-12T19:23:47;4.15;;;1.55;;
63370;SDS011;49504;48.336;14.472;2023-08-12T19:27:10;3.72;;;1.33;;
63370;SDS011;49504;48.336;14.472;2023-08-12T19:30:31;5.53;;;1.27;;
63370;SDS011;49504;48.336;14.472;2023-08-12T19:33:52;3.17;;;1.52;;
63370;SDS011;49504;48.336;14.472;2023-08-12T19:37:14;3.90;;;1.55;;
63370;SDS011;49504;48.336;14.472;2023-08-12T19:40:35;3.38;;;1.50;;
63370;SDS011;49504;48.336;14.472;2023-08-12T19:46:21;2.90;;;1.30;;
63370;SDS011;49504;48.336;14.472;2023-08-12T19:49:47;3.38;;;1.17;;
63370;SDS011;49504;48.336;14.472;2023-08-12T19:53:08;3.92;;;1.40;;
63370;SDS011;49504;48.336;14.472;2023-08-12T19:56:30;4.60;;;1.70;;
63370;SDS011;49504;48.336;14.472;2023-08-12T19:59:51;3.88;;;1.80;;
63370;SDS011;49504;48.336;14.472;2023-08-12T20:03:14;4.85;;;1.83;;
63370;SDS011;49504;48.336;14.472;2023-08-12T20:06:35;4.10;;;1.50;;
63370;SDS011;49504;48.336;14.472;2023-08-12T20:09:56;4.07;;;1.38;;
63370;SDS011;49504;48.336;14.472;2023-08-12T20:13:17;3.55;;;1.42;;
63370;SDS011;49504;48.336;14.472;2023-08-12T20:16:38;3.42;;;1.17;;
63370;SDS011;49504;48.336;14.472;2023-08-12T20:20:01;3.00;;;1.50;;
63370;SDS011;49504;48.336;14.472;2023-08-12T20:25:43;3.05;;;1.48;;
63370;SDS011;49504;48.336;14.472;2023-08-12T20:31:55;4.50;;;1.63;;
63370;SDS011;49504;48.336;14.472;2023-08-12T20:35:16;3.75;;;1.70;;